createdAt,value
2023-05-13T00:00:46.722Z,10.66
2023-05-13T00:03:13.201Z,10.63
2023-05-13T00:05:40.404Z,10.72
2023-05-13T00:08:07.498Z,10.65
2023-05-13T00:10:34.613Z,10.65
2023-05-13T00:13:01.560Z,10.50
2023-05-13T00:15:28.732Z,10.42
2023-05-13T00:17:55.219Z,10.48
2023-05-13T00:20:21.915Z,10.56
2023-05-13T00:22:48.820Z,10.75
2023-05-13T00:25:15.523Z,10.87
2023-05-13T00:27:43.005Z,10.98
2023-05-13T00:30:14.098Z,10.90
2023-05-13T00:32:42.028Z,10.80
2023-05-13T00:35:08.990Z,10.65
2023-05-13T00:37:35.848Z,10.48
2023-05-13T00:40:02.317Z,10.32
2023-05-13T00:42:28.817Z,10.26
2023-05-13T00:44:55.269Z,10.25
2023-05-13T00:47:22.263Z,10.06
2023-05-13T00:49:48.794Z,9.95
2023-05-13T00:52:15.207Z,9.91
2023-05-13T00:54:41.633Z,9.83
2023-05-13T00:57:08.192Z,9.76
2023-05-13T00:59:34.676Z,9.75
2023-05-13T01:02:14.701Z,9.69
2023-05-13T01:04:47.666Z,9.64
2023-05-13T01:07:45.052Z,9.61
2023-05-13T01:10:23.419Z,9.62
2023-05-13T01:12:54.032Z,9.56
2023-05-13T01:15:25.501Z,9.51
2023-05-13T01:18:09.868Z,9.46
2023-05-13T01:20:38.311Z,9.42
2023-05-13T01:23:06.262Z,9.45
2023-05-13T01:25:32.793Z,9.45
2023-05-13T01:27:59.558Z,9.48
2023-05-13T01:30:26.693Z,9.41
2023-05-13T01:32:53.623Z,9.42
2023-05-13T01:35:21.119Z,9.35
2023-05-13T01:37:48.866Z,9.33
2023-05-13T01:40:31.223Z,9.32
2023-05-13T01:42:59.447Z,9.28
2023-05-13T01:45:28.658Z,9.28
2023-05-13T01:47:55.395Z,9.27
2023-05-13T01:50:22.344Z,9.18
2023-05-13T01:52:49.009Z,9.16
2023-05-13T01:55:15.934Z,9.14
2023-05-13T02:00:38.639Z,9.05
2023-05-13T02:03:06.376Z,8.96
2023-05-13T02:05:33.465Z,8.91
2023-05-13T02:08:00.187Z,8.82
2023-05-13T02:10:26.895Z,8.72
2023-05-13T02:12:53.599Z,8.77
2023-05-13T02:15:20.390Z,8.66
2023-05-13T02:17:47.576Z,8.63
2023-05-13T02:20:15.129Z,8.54
2023-05-13T02:22:42.438Z,8.48
2023-05-13T02:25:09.853Z,8.41
2023-05-13T02:27:37.209Z,8.40
2023-05-13T02:30:04.602Z,8.37
2023-05-13T02:32:31.847Z,8.35
2023-05-13T02:34:58.752Z,8.28
2023-05-13T02:37:26.855Z,8.23
2023-05-13T02:39:53.914Z,8.25
2023-05-13T02:42:21.100Z,8.20
2023-05-13T02:44:48.561Z,8.18
2023-05-13T02:47:15.296Z,8.16
2023-05-13T02:49:42.330Z,8.10
2023-05-13T02:52:09.078Z,8.10
2023-05-13T02:54:35.552Z,8.12
2023-05-13T02:57:02.186Z,8.07
2023-05-13T02:59:28.700Z,8.03
2023-05-13T03:01:55.213Z,8.00
2023-05-13T03:04:22.126Z,7.93
2023-05-13T03:06:49.587Z,7.97
2023-05-13T03:09:16.771Z,7.91
2023-05-13T03:11:43.252Z,7.95
2023-05-13T03:14:09.900Z,7.95
2023-05-13T03:16:36.693Z,7.89
2023-05-13T03:19:03.651Z,7.88
2023-05-13T03:21:30.209Z,7.87
2023-05-13T03:23:56.727Z,7.92
2023-05-13T03:26:23.826Z,7.87
2023-05-13T03:28:50.313Z,7.85
2023-05-13T03:31:16.828Z,7.83
2023-05-13T03:33:43.623Z,7.87
2023-05-13T03:36:10.353Z,7.92
2023-05-13T03:38:36.984Z,7.96
2023-05-13T03:41:03.705Z,8.03
2023-05-13T03:43:31.242Z,8.07
2023-05-13T03:45:57.838Z,8.08
2023-05-13T03:48:24.376Z,8.10
2023-05-13T03:50:53.035Z,8.17
2023-05-13T03:53:19.765Z,8.15
2023-05-13T03:55:46.387Z,8.19
2023-05-13T03:58:17.119Z,8.23
2023-05-13T04:00:46.738Z,8.27
2023-05-13T04:03:14.399Z,8.29
2023-05-13T04:05:41.020Z,8.40
2023-05-13T04:08:07.905Z,8.47
2023-05-13T04:10:34.499Z,8.52
2023-05-13T04:13:01.061Z,8.56
2023-05-13T04:15:27.694Z,8.61
2023-05-13T04:17:54.616Z,8.62
2023-05-13T04:20:21.324Z,8.81
2023-05-13T04:22:48.704Z,8.81
2023-05-13T04:25:15.721Z,8.82
2023-05-13T04:27:42.432Z,8.89
2023-05-13T04:30:09.748Z,9.02
2023-05-13T04:32:37.052Z,9.11
2023-05-13T04:35:03.937Z,9.11
2023-05-13T04:37:31.509Z,9.18
2023-05-13T04:40:00.871Z,9.19
2023-05-13T04:42:27.509Z,9.18
2023-05-13T04:44:54.254Z,9.31
2023-05-13T04:47:20.840Z,9.27
2023-05-13T04:49:48.725Z,9.35
2023-05-13T04:52:15.874Z,9.53
2023-05-13T04:54:42.730Z,9.61
2023-05-13T04:57:09.287Z,9.58
2023-05-13T04:59:35.898Z,9.77
2023-05-13T05:02:02.552Z,9.78
2023-05-13T05:04:29.273Z,9.97
2023-05-13T05:06:55.891Z,10.04
2023-05-13T05:09:23.446Z,10.13
2023-05-13T05:11:50.760Z,10.26
2023-05-13T05:14:17.597Z,10.46
2023-05-13T05:16:44.453Z,10.79
2023-05-13T05:19:11.112Z,11.44
2023-05-13T05:21:38.106Z,11.84
2023-05-13T05:24:05.940Z,13.13
2023-05-13T05:26:32.379Z,13.27
2023-05-13T05:28:58.922Z,13.27
2023-05-13T05:31:27.639Z,13.33
2023-05-13T05:33:54.339Z,13.10
2023-05-13T05:36:20.818Z,13.21
2023-05-13T05:38:47.449Z,13.34
2023-05-13T05:41:13.950Z,13.66
2023-05-13T05:43:40.481Z,14.86
2023-05-13T05:46:07.608Z,16.67
2023-05-13T05:48:34.878Z,17.38
2023-05-13T05:51:02.214Z,18.93
2023-05-13T05:53:28.919Z,18.30
2023-05-13T05:55:56.382Z,19.32
2023-05-13T05:58:23.130Z,19.24
2023-05-13T06:00:49.661Z,18.32
2023-05-13T06:03:16.277Z,16.98
2023-05-13T06:05:43.050Z,16.92
2023-05-13T06:08:09.732Z,17.84
2023-05-13T06:10:36.375Z,18.55
2023-05-13T06:13:03.025Z,17.97
2023-05-13T06:15:29.758Z,18.72
2023-05-13T06:17:57.048Z,19.58
2023-05-13T06:20:24.074Z,21.26
2023-05-13T06:22:50.759Z,21.23
2023-05-13T06:25:18.422Z,22.84
2023-05-13T06:27:45.013Z,24.14
2023-05-13T06:30:11.718Z,23.05
2023-05-13T06:32:41.003Z,24.78
2023-05-13T06:35:14.136Z,25.11
2023-05-13T06:37:40.860Z,25.53
2023-05-13T06:40:08.069Z,25.09
2023-05-13T06:42:39.711Z,25.36
2023-05-13T06:45:08.215Z,25.67
2023-05-13T06:47:35.542Z,25.66
2023-05-13T06:50:03.360Z,24.51
2023-05-13T06:52:31.568Z,25.13
2023-05-13T06:54:59.911Z,26.81
2023-05-13T06:57:38.841Z,28.32
2023-05-13T07:00:09.254Z,27.94
2023-05-13T07:02:36.355Z,28.25
2023-05-13T07:05:03.250Z,28.31
2023-05-13T07:07:29.888Z,26.21
2023-05-13T07:09:56.540Z,25.49
2023-05-13T07:12:23.188Z,25.55
2023-05-13T07:14:49.920Z,25.32
2023-05-13T07:17:17.471Z,26.34
2023-05-13T07:19:45.119Z,28.26
2023-05-13T07:22:12.041Z,27.96
2023-05-13T07:24:38.830Z,27.76
2023-05-13T07:27:05.649Z,27.40
2023-05-13T07:29:33.602Z,27.45
2023-05-13T07:32:04.846Z,25.05
2023-05-13T07:34:31.365Z,24.83
2023-05-13T07:36:58.575Z,26.40
2023-05-13T07:39:25.487Z,27.03
2023-05-13T07:41:52.135Z,26.55
2023-05-13T07:44:19.364Z,25.28
2023-05-13T07:46:46.020Z,25.79
2023-05-13T07:49:12.589Z,26.61
2023-05-13T07:51:39.670Z,25.70
2023-05-13T07:54:06.153Z,25.23
2023-05-13T07:56:32.905Z,24.43
2023-05-13T07:59:00.594Z,25.06
2023-05-13T08:01:27.312Z,25.14
2023-05-13T08:03:54.004Z,26.47
2023-05-13T08:06:20.781Z,25.88
2023-05-13T08:08:47.385Z,23.50
2023-05-13T08:11:13.912Z,24.58
2023-05-13T08:13:40.540Z,25.69
2023-05-13T08:16:07.477Z,25.43
2023-05-13T08:18:34.151Z,25.17
2023-05-13T08:21:00.816Z,24.58
2023-05-13T08:23:40.390Z,26.91
2023-05-13T08:26:10.575Z,27.21
2023-05-13T08:28:38.065Z,27.74
2023-05-13T08:31:04.991Z,28.61
2023-05-13T08:33:32.560Z,30.05
2023-05-13T08:36:00.896Z,27.00
2023-05-13T08:38:27.481Z,23.31
2023-05-13T08:40:54.222Z,23.83
2023-05-13T08:43:23.954Z,24.17
2023-05-13T08:45:53.524Z,24.66
2023-05-13T08:48:20.495Z,26.23
2023-05-13T08:50:48.664Z,25.36
2023-05-13T08:53:16.998Z,25.11
2023-05-13T08:55:43.639Z,26.01
2023-05-13T08:58:10.230Z,26.45
2023-05-13T09:00:36.911Z,24.59
2023-05-13T09:03:03.720Z,25.87
2023-05-13T09:05:31.995Z,27.89
2023-05-13T09:07:58.926Z,27.14
2023-05-13T09:10:25.433Z,28.66
2023-05-13T09:12:55.478Z,28.48
2023-05-13T09:15:24.710Z,29.00
2023-05-13T09:17:55.174Z,26.70
2023-05-13T09:20:22.953Z,25.82
2023-05-13T09:23:10.592Z,23.80
2023-05-13T09:25:38.579Z,23.31
2023-05-13T09:28:06.578Z,23.50
2023-05-13T09:30:40.144Z,24.37
2023-05-13T09:33:13.898Z,25.27
2023-05-13T09:35:42.462Z,26.76
2023-05-13T09:38:14.950Z,26.38
2023-05-13T09:40:42.296Z,24.83
2023-05-13T09:43:09.189Z,24.44
2023-05-13T09:45:36.203Z,24.39
2023-05-13T09:48:03.398Z,24.28
2023-05-13T09:50:31.411Z,25.87
2023-05-13T09:52:57.962Z,26.11
2023-05-13T09:55:24.512Z,25.13
2023-05-13T09:57:53.214Z,24.29
2023-05-13T10:00:31.730Z,25.15
2023-05-13T10:03:01.128Z,25.54
2023-05-13T10:05:27.819Z,22.93
2023-05-13T10:07:55.298Z,23.52
2023-05-13T10:10:22.149Z,24.97
2023-05-13T10:12:49.538Z,24.05
2023-05-13T10:15:16.606Z,24.46
2023-05-13T10:17:44.866Z,23.82
2023-05-13T10:20:12.102Z,22.89
2023-05-13T10:22:39.125Z,23.73
2023-05-13T10:25:06.467Z,24.31
2023-05-13T10:27:33.925Z,24.83
2023-05-13T10:30:03.510Z,24.33
2023-05-13T10:32:31.171Z,23.08
2023-05-13T10:35:03.158Z,23.15
2023-05-13T10:38:01.798Z,22.90
2023-05-13T10:40:47.317Z,21.93
2023-05-13T10:43:22.007Z,21.22
2023-05-13T10:45:50.351Z,21.45
2023-05-13T10:48:18.599Z,21.03
2023-05-13T10:50:56.867Z,21.17
2023-05-13T10:53:25.809Z,21.11
2023-05-13T10:55:54.317Z,20.98
2023-05-13T10:58:22.560Z,20.73
2023-05-13T11:01:02.365Z,20.53
2023-05-13T11:03:30.043Z,20.16
2023-05-13T11:06:17.709Z,19.86
2023-05-13T11:08:49.881Z,19.55
2023-05-13T11:11:22.737Z,19.14
2023-05-13T11:13:53.785Z,18.63
2023-05-13T11:16:21.163Z,17.94
2023-05-13T11:18:47.891Z,17.10
2023-05-13T11:21:14.720Z,16.40
2023-05-13T11:23:52.115Z,16.14
2023-05-13T11:26:20.146Z,16.32
2023-05-13T11:28:58.230Z,16.62
2023-05-13T11:31:26.985Z,16.40
2023-05-13T11:34:07.178Z,16.31
2023-05-13T11:36:35.133Z,16.45
2023-05-13T11:39:13.789Z,16.70
2023-05-13T11:41:42.862Z,17.02
2023-05-13T11:44:11.203Z,17.19
2023-05-13T11:46:37.823Z,17.53
2023-05-13T11:49:07.094Z,17.74
2023-05-13T11:51:34.062Z,17.91
2023-05-13T11:54:04.023Z,18.56
2023-05-13T11:56:30.961Z,18.64
2023-05-13T11:59:14.513Z,18.87
2023-05-13T12:01:41.400Z,18.94
2023-05-13T12:04:08.589Z,19.23
2023-05-13T12:06:36.222Z,19.62
2023-05-13T12:09:07.113Z,19.49
2023-05-13T12:11:33.817Z,19.85
2023-05-13T12:14:00.750Z,19.80
2023-05-13T12:16:28.751Z,19.34
2023-05-13T12:19:06.374Z,19.44
2023-05-13T12:21:34.463Z,19.26
2023-05-13T12:24:01.094Z,19.49
2023-05-13T12:26:27.619Z,19.66
2023-05-13T12:29:00.396Z,19.94
2023-05-13T12:31:27.452Z,19.87
2023-05-13T12:33:54.043Z,19.40
2023-05-13T12:36:26.155Z,19.43
2023-05-13T12:39:00.945Z,19.55
2023-05-13T12:41:30.683Z,19.36
2023-05-13T12:44:08.303Z,19.28
2023-05-13T12:46:35.283Z,19.35
2023-05-13T12:49:04.094Z,19.14
2023-05-13T12:51:30.805Z,19.06
2023-05-13T12:53:59.349Z,19.00
2023-05-13T12:56:29.161Z,19.00
2023-05-13T12:58:55.895Z,19.19
2023-05-13T13:01:22.968Z,19.26
2023-05-13T13:03:50.163Z,19.23
2023-05-13T13:06:17.395Z,19.01
2023-05-13T13:08:43.837Z,19.27
2023-05-13T13:11:10.733Z,19.14
2023-05-13T13:13:39.217Z,18.86
2023-05-13T13:16:06.431Z,18.84
2023-05-13T13:18:33.105Z,19.03
2023-05-13T13:20:59.721Z,18.99
2023-05-13T13:23:26.472Z,19.39
2023-05-13T13:25:53.021Z,19.40
2023-05-13T13:28:19.635Z,19.44
2023-05-13T13:30:47.354Z,19.25
2023-05-13T13:33:15.641Z,19.03
2023-05-13T13:35:47.143Z,19.05
2023-05-13T13:38:14.209Z,18.93
2023-05-13T13:40:40.963Z,18.78
2023-05-13T13:43:07.703Z,18.71
2023-05-13T13:45:34.886Z,18.40
2023-05-13T13:48:01.615Z,18.44
2023-05-13T13:50:28.497Z,18.79
2023-05-13T13:52:55.156Z,18.65
2023-05-13T13:55:23.574Z,18.75
2023-05-13T13:57:50.791Z,18.60
2023-05-13T14:00:17.960Z,18.67
2023-05-13T14:02:45.006Z,18.51
2023-05-13T14:05:12.747Z,18.30
2023-05-13T14:07:39.502Z,18.32
2023-05-13T14:10:06.937Z,18.03
2023-05-13T14:12:35.726Z,18.10
2023-05-13T14:15:02.882Z,18.18
2023-05-13T14:17:29.663Z,18.09
2023-05-13T14:19:56.182Z,17.88
2023-05-13T14:22:24.237Z,17.43
2023-05-13T14:24:54.118Z,17.27
2023-05-13T14:27:21.625Z,17.25
2023-05-13T14:29:48.862Z,17.02
2023-05-13T14:32:15.473Z,16.88
2023-05-13T14:34:42.498Z,16.73
2023-05-13T14:37:09.140Z,16.61
2023-05-13T14:39:35.913Z,16.51
2023-05-13T14:42:04.550Z,16.44
2023-05-13T14:44:32.412Z,16.49
2023-05-13T14:46:59.084Z,16.54
2023-05-13T14:49:26.793Z,16.54
2023-05-13T14:51:54.013Z,16.59
2023-05-13T14:54:21.218Z,16.57
2023-05-13T14:56:47.771Z,16.55
2023-05-13T14:59:14.996Z,16.55
2023-05-13T15:01:42.135Z,16.61
2023-05-13T15:04:08.731Z,16.76
2023-05-13T15:06:37.115Z,16.86
2023-05-13T15:09:03.837Z,17.02
2023-05-13T15:11:30.458Z,17.23
2023-05-13T15:13:57.186Z,17.24
2023-05-13T15:16:23.770Z,17.36
2023-05-13T15:18:50.838Z,17.39
2023-05-13T15:21:17.549Z,17.49
2023-05-13T15:23:44.173Z,17.54
2023-05-13T15:26:10.719Z,17.41
2023-05-13T15:28:37.868Z,17.41
2023-05-13T15:31:05.871Z,17.40
2023-05-13T15:33:32.859Z,17.31
2023-05-13T15:36:00.038Z,17.17
2023-05-13T15:38:27.427Z,16.91
2023-05-13T15:40:54.026Z,16.70
2023-05-13T15:43:20.823Z,16.31
2023-05-13T15:45:47.656Z,16.13
2023-05-13T15:48:14.251Z,15.89
2023-05-13T15:50:41.039Z,15.84
2023-05-13T15:53:08.116Z,15.81
2023-05-13T15:55:36.864Z,15.53
2023-05-13T15:58:03.550Z,15.32
2023-05-13T16:00:30.166Z,14.94
2023-05-13T16:02:56.678Z,14.70
2023-05-13T16:05:23.253Z,14.61
2023-05-13T16:07:49.985Z,14.59
2023-05-13T16:10:16.829Z,14.54
2023-05-13T16:12:43.382Z,14.57
2023-05-13T16:15:11.125Z,14.52
2023-05-13T16:17:37.887Z,14.57
2023-05-13T16:20:05.204Z,14.60
2023-05-13T16:22:33.765Z,14.59
2023-05-13T16:25:02.476Z,14.62
2023-05-13T16:27:29.378Z,14.63
2023-05-13T16:29:57.503Z,14.65
2023-05-13T16:32:24.763Z,14.64
2023-05-13T16:34:52.193Z,14.67
2023-05-13T16:37:19.291Z,14.74
2023-05-13T16:39:45.983Z,14.71
2023-05-13T16:42:12.570Z,14.64
2023-05-13T16:44:39.128Z,14.46
2023-05-13T16:47:11.083Z,14.33
2023-05-13T16:49:37.618Z,14.11
2023-05-13T16:52:04.828Z,13.90
2023-05-13T16:54:31.840Z,13.76
2023-05-13T16:56:58.693Z,13.67
2023-05-13T16:59:27.721Z,13.63
2023-05-13T17:01:54.504Z,13.55
2023-05-13T17:04:21.252Z,13.47
2023-05-13T17:06:47.959Z,13.45
2023-05-13T17:09:27.575Z,13.41
2023-05-13T17:11:54.703Z,13.35
2023-05-13T17:14:21.897Z,13.34
2023-05-13T17:16:48.940Z,13.36
2023-05-13T17:19:15.582Z,13.33
2023-05-13T17:21:42.173Z,13.36
2023-05-13T17:24:09.726Z,13.40
2023-05-13T17:26:38.583Z,13.38
2023-05-13T17:29:06.101Z,13.38
2023-05-13T17:31:33.709Z,13.46
2023-05-13T17:34:00.471Z,13.43
2023-05-13T17:36:27.663Z,13.42
2023-05-13T17:38:54.315Z,13.46
2023-05-13T17:41:21.780Z,13.48
2023-05-13T17:43:48.467Z,13.48
2023-05-13T17:46:15.035Z,13.45
2023-05-13T17:48:42.686Z,13.43
2023-05-13T17:51:11.115Z,13.43
2023-05-13T17:53:37.571Z,13.39
2023-05-13T17:56:04.627Z,13.39
2023-05-13T17:58:31.160Z,13.38
2023-05-13T18:00:57.697Z,13.44
2023-05-13T18:03:24.261Z,13.48
2023-05-13T18:05:51.090Z,13.49
2023-05-13T18:08:17.639Z,13.53
2023-05-13T18:10:44.265Z,13.59
2023-05-13T18:13:11.549Z,13.63
2023-05-13T18:15:38.167Z,13.71
2023-05-13T18:18:05.135Z,13.71
2023-05-13T18:20:32.786Z,13.67
2023-05-13T18:23:00.181Z,13.69
2023-05-13T18:25:26.744Z,13.74
2023-05-13T18:27:54.050Z,13.76
2023-05-13T18:30:21.173Z,13.78
2023-05-13T18:32:48.224Z,13.76
2023-05-13T18:35:16.077Z,13.82
2023-05-13T18:37:42.807Z,13.81
2023-05-13T18:40:09.811Z,13.83
2023-05-13T18:42:36.270Z,13.84
2023-05-13T18:45:02.799Z,13.99
2023-05-13T18:47:29.732Z,14.00
2023-05-13T18:49:56.325Z,14.06
2023-05-13T18:52:22.942Z,14.03
2023-05-13T18:54:51.146Z,13.92
2023-05-13T18:57:20.676Z,13.87
2023-05-13T18:59:47.204Z,13.92
2023-05-13T19:02:13.765Z,13.95
2023-05-13T19:04:40.867Z,13.90
2023-05-13T19:07:08.478Z,13.97
2023-05-13T19:09:36.024Z,13.89
2023-05-13T19:12:02.937Z,13.82
2023-05-13T19:14:29.407Z,13.68
2023-05-13T19:16:56.364Z,13.63
2023-05-13T19:19:24.161Z,13.52
2023-05-13T19:21:50.628Z,13.42
2023-05-13T19:24:17.087Z,13.31
2023-05-13T19:26:43.694Z,13.21
2023-05-13T19:29:10.305Z,13.11
2023-05-13T19:31:37.342Z,13.04
2023-05-13T19:34:03.942Z,13.08
2023-05-13T19:36:31.205Z,13.00
2023-05-13T19:38:57.714Z,12.96
2023-05-13T19:41:24.283Z,12.95
2023-05-13T19:43:50.830Z,12.92
2023-05-13T19:46:17.500Z,12.92
2023-05-13T19:48:44.075Z,12.86
2023-05-13T19:51:10.666Z,12.88
2023-05-13T19:53:37.541Z,12.78
2023-05-13T19:56:04.268Z,12.66
2023-05-13T19:58:30.768Z,12.57
2023-05-13T20:00:58.123Z,12.46
2023-05-13T20:03:24.663Z,12.38
2023-05-13T20:05:53.076Z,12.26
2023-05-13T20:08:20.852Z,12.14
2023-05-13T20:10:47.388Z,12.23
2023-05-13T20:13:13.883Z,12.36
2023-05-13T20:15:41.700Z,12.42
2023-05-13T20:18:08.414Z,12.18
2023-05-13T20:20:35.407Z,12.01
2023-05-13T20:23:01.969Z,11.91
2023-05-13T20:25:28.470Z,11.78
2023-05-13T20:27:55.018Z,11.71
2023-05-13T20:30:22.293Z,11.65
2023-05-13T20:32:49.043Z,11.55
2023-05-13T20:35:15.860Z,11.49
2023-05-13T20:37:43.151Z,11.51
2023-05-13T20:40:10.092Z,11.62
2023-05-13T20:42:36.588Z,11.58
2023-05-13T20:45:04.299Z,11.61
2023-05-13T20:47:31.277Z,11.60
2023-05-13T20:49:58.063Z,11.56
2023-05-13T20:52:25.091Z,11.57
2023-05-13T20:54:51.670Z,11.63
2023-05-13T20:57:18.523Z,11.63
2023-05-13T20:59:45.341Z,11.59
2023-05-13T21:02:11.975Z,11.58
2023-05-13T21:04:38.411Z,11.54
2023-05-13T21:07:06.789Z,11.64
2023-05-13T21:09:33.629Z,11.61
2023-05-13T21:12:00.264Z,11.60
2023-05-13T21:14:26.785Z,11.61
2023-05-13T21:16:53.383Z,11.63
2023-05-13T21:19:24.144Z,11.61
2023-05-13T21:21:51.148Z,11.70
2023-05-13T21:24:18.768Z,11.75
2023-05-13T21:26:46.149Z,11.85
2023-05-13T21:29:12.650Z,11.86
2023-05-13T21:31:42.566Z,11.94
2023-05-13T21:34:09.159Z,11.93
2023-05-13T21:36:38.848Z,11.96
2023-05-13T21:39:10.355Z,12.01
2023-05-13T21:41:37.094Z,12.09
2023-05-13T21:44:03.722Z,12.13
2023-05-13T21:46:30.406Z,12.14
2023-05-13T21:49:02.384Z,12.18
2023-05-13T21:51:29.214Z,12.21
2023-05-13T21:53:55.813Z,12.20
2023-05-13T21:56:22.554Z,12.18
2023-05-13T21:58:49.862Z,12.22
2023-05-13T22:01:16.698Z,12.23
2023-05-13T22:03:43.618Z,12.23
2023-05-13T22:06:10.483Z,12.25
2023-05-13T22:08:37.478Z,12.26
2023-05-13T22:11:04.044Z,12.27
2023-05-13T22:13:30.647Z,12.24
2023-05-13T22:15:57.101Z,12.23
2023-05-13T22:18:23.902Z,12.19
2023-05-13T22:20:51.326Z,12.12
2023-05-13T22:23:17.745Z,12.11
2023-05-13T22:25:44.357Z,12.08
2023-05-13T22:28:10.968Z,12.08
2023-05-13T22:30:37.408Z,12.07
2023-05-13T22:33:04.074Z,12.10
2023-05-13T22:35:31.903Z,12.12
2023-05-13T22:37:58.388Z,12.12
2023-05-13T22:40:25.105Z,12.15
2023-05-13T22:42:51.984Z,12.14
2023-05-13T22:45:18.684Z,12.13
2023-05-13T22:47:45.217Z,12.11
2023-05-13T22:50:12.449Z,12.10
2023-05-13T22:52:39.462Z,12.07
2023-05-13T22:55:07.054Z,12.05
2023-05-13T22:57:33.609Z,12.01
2023-05-13T23:00:00.220Z,11.98
2023-05-13T23:02:27.446Z,11.97
2023-05-13T23:04:53.933Z,11.89
2023-05-13T23:07:20.432Z,11.88
2023-05-13T23:09:46.957Z,11.86
2023-05-13T23:12:13.621Z,11.90
2023-05-13T23:14:40.768Z,11.90
2023-05-13T23:17:08.208Z,11.92
2023-05-13T23:19:35.465Z,11.92
2023-05-13T23:22:03.820Z,11.94
2023-05-13T23:24:30.711Z,11.96
2023-05-13T23:26:57.817Z,11.94
2023-05-13T23:29:27.681Z,11.90
2023-05-13T23:31:55.389Z,11.86
2023-05-13T23:34:22.186Z,11.84
2023-05-13T23:36:49.103Z,11.86
2023-05-13T23:39:15.795Z,11.81
2023-05-13T23:41:42.883Z,11.77
2023-05-13T23:44:09.642Z,11.75
2023-05-13T23:46:36.126Z,11.78
2023-05-13T23:49:02.937Z,11.72
2023-05-13T23:51:30.998Z,11.66
2023-05-13T23:53:57.737Z,11.65
2023-05-13T23:56:25.511Z,11.61
2023-05-13T23:58:51.990Z,11.60
